createdAt,value
2023-02-04T00:00:26.311Z,103354.91
2023-02-04T00:03:28.827Z,103356.00
2023-02-04T00:06:31.346Z,103357.69
2023-02-04T00:09:35.235Z,103357.69
2023-02-04T00:12:37.813Z,103357.69
2023-02-04T00:15:40.406Z,103357.69
2023-02-04T00:18:42.948Z,103365.50
2023-02-04T00:21:45.522Z,103369.38
2023-02-04T00:24:50.458Z,103358.25
2023-02-04T00:27:53.117Z,103351.56
2023-02-04T00:30:55.747Z,103356.59
2023-02-04T00:33:59.582Z,103349.38
2023-02-04T00:37:02.208Z,103356.03
2023-02-04T00:40:06.737Z,103358.25
2023-02-04T00:43:09.303Z,103369.06
2023-02-04T00:46:11.983Z,103364.34
2023-02-04T00:49:14.536Z,103364.91
2023-02-04T00:52:17.111Z,103364.34
2023-02-04T00:55:21.026Z,103376.00
2023-02-04T00:58:23.576Z,103372.97
2023-02-04T01:01:26.132Z,103378.22
2023-02-04T01:04:29.496Z,103381.53
2023-02-04T01:07:32.100Z,103382.38
2023-02-04T01:10:36.129Z,103379.91
2023-02-04T01:13:38.949Z,103379.06
2023-02-04T01:16:41.528Z,103381.00
2023-02-04T01:19:44.152Z,103385.47
2023-02-04T01:22:46.707Z,103379.34
2023-02-04T01:25:50.642Z,103381.03
2023-02-04T01:28:53.169Z,103389.91
2023-02-04T01:31:55.800Z,103388.53
2023-02-04T01:34:58.476Z,103398.53
2023-02-04T01:38:01.002Z,103390.47
2023-02-04T01:41:05.020Z,103388.81
2023-02-04T01:44:07.560Z,103398.81
2023-02-04T01:47:10.156Z,103401.59
2023-02-04T01:50:13.669Z,103407.16
2023-02-04T01:53:16.513Z,103411.03
2023-02-04T01:56:23.100Z,103418.81
2023-02-04T01:59:25.621Z,103419.66
2023-02-04T02:02:52.472Z,103421.59
2023-02-04T02:05:55.068Z,103419.94
2023-02-04T02:08:58.311Z,103416.03
2023-02-04T02:12:03.265Z,103410.50
2023-02-04T02:15:06.289Z,103417.16
2023-02-04T02:18:08.900Z,103414.94
2023-02-04T02:21:11.557Z,103431.59
2023-02-04T02:24:27.193Z,103419.38
2023-02-04T02:27:29.704Z,103428.56
2023-02-04T02:30:32.466Z,103432.44
2023-02-04T02:33:35.257Z,103438.84
2023-02-04T02:36:37.894Z,103450.78
2023-02-04T02:39:41.995Z,103452.72
2023-02-04T02:42:44.901Z,103459.41
2023-02-04T02:45:47.503Z,103459.41
2023-02-04T02:48:50.035Z,103452.16
2023-02-04T02:51:52.604Z,103458.56
2023-02-04T02:54:56.528Z,103460.50
2023-02-04T02:57:59.063Z,103450.50
2023-02-04T03:01:02.214Z,103457.19
2023-02-04T03:04:05.132Z,103459.97
2023-02-04T03:07:07.849Z,103467.16
2023-02-04T03:10:11.893Z,103456.88
2023-02-04T03:13:15.106Z,103456.63
2023-02-04T03:16:17.681Z,103452.16
2023-02-04T03:19:20.277Z,103464.13
2023-02-04T03:22:22.852Z,103453.84
2023-02-04T03:25:28.111Z,103460.22
2023-02-04T03:28:31.343Z,103456.63
2023-02-04T03:31:33.915Z,103463.28
2023-02-04T03:34:36.538Z,103461.59
2023-02-04T03:37:39.175Z,103453.56
2023-02-04T03:40:43.058Z,103454.13
2023-02-04T03:43:45.597Z,103446.63
2023-02-04T03:46:48.120Z,103428.84
2023-02-04T03:49:50.709Z,103444.41
2023-02-04T03:52:53.820Z,103454.97
2023-02-04T03:55:57.754Z,103441.06
2023-02-04T03:59:00.277Z,103434.16
2023-02-04T04:02:02.885Z,103426.63
2023-02-04T04:05:05.919Z,103438.00
2023-02-04T04:08:08.520Z,103453.88
2023-02-04T04:11:12.531Z,103456.34
2023-02-04T04:14:15.069Z,103462.72
2023-02-04T04:17:17.644Z,103466.63
2023-02-04T04:20:20.198Z,103477.19
2023-02-04T04:23:22.784Z,103483.28
2023-02-04T04:26:26.653Z,103490.50
2023-02-04T04:29:29.252Z,103488.84
2023-02-04T04:32:31.778Z,103485.78
2023-02-04T04:35:34.779Z,103491.06
2023-02-04T04:38:37.435Z,103497.19
2023-02-04T04:41:41.349Z,103491.66
2023-02-04T04:44:43.912Z,103501.91
2023-02-04T04:47:46.468Z,103508.31
2023-02-04T04:50:49.080Z,103512.19
2023-02-04T04:53:51.813Z,103516.63
2023-02-04T04:56:55.742Z,103513.88
2023-02-04T04:59:58.338Z,103517.19
2023-02-04T05:03:01.108Z,103513.28
2023-02-04T05:06:03.664Z,103515.81
2023-02-04T05:09:06.195Z,103514.97
2023-02-04T05:12:10.064Z,103515.81
2023-02-04T05:15:12.606Z,103518.31
2023-02-04T05:18:15.192Z,103515.25
2023-02-04T05:21:17.721Z,103512.19
2023-02-04T05:24:20.293Z,103515.25
2023-02-04T05:27:24.186Z,103513.03
2023-02-04T05:30:26.822Z,103518.59
2023-02-04T05:33:29.441Z,103517.75
2023-02-04T05:36:32.000Z,103514.41
2023-02-04T05:39:34.570Z,103517.75
2023-02-04T05:42:38.452Z,103518.84
2023-02-04T05:45:41.013Z,103529.97
2023-02-04T05:48:43.600Z,103521.91
2023-02-04T05:51:46.137Z,103528.28
2023-02-04T05:54:48.678Z,103528.03
2023-02-04T05:57:52.553Z,103526.63
2023-02-04T06:00:55.091Z,103533.56
2023-02-04T06:03:57.703Z,103544.38
2023-02-04T06:07:00.771Z,103529.97
2023-02-04T06:10:03.310Z,103542.75
2023-02-04T06:13:07.234Z,103545.53
2023-02-04T06:16:09.847Z,103549.41
2023-02-04T06:19:13.662Z,103560.50
2023-02-04T06:22:16.250Z,103552.75
2023-02-04T06:25:18.844Z,103560.78
2023-02-04T06:28:22.800Z,103562.47
2023-02-04T06:31:25.469Z,103557.75
2023-02-04T06:34:28.104Z,103561.09
2023-02-04T06:37:30.730Z,103568.31
2023-02-04T06:40:33.651Z,103564.41
2023-02-04T06:43:37.732Z,103577.19
2023-02-04T06:46:40.310Z,103574.16
2023-02-04T06:49:42.889Z,103576.66
2023-02-04T06:52:46.387Z,103579.16
2023-02-04T06:55:48.963Z,103586.66
2023-02-04T06:58:52.825Z,103588.03
2023-02-04T07:01:55.342Z,103587.19
2023-02-04T07:04:57.949Z,103592.50
2023-02-04T07:08:00.542Z,103596.09
2023-02-04T07:11:03.112Z,103602.75
2023-02-04T07:14:06.990Z,103604.44
2023-02-04T07:17:09.556Z,103608.91
2023-02-04T07:20:12.936Z,103614.44
2023-02-04T07:23:15.501Z,103603.34
2023-02-04T07:26:18.090Z,103611.09
2023-02-04T07:29:25.672Z,103603.34
2023-02-04T07:32:32.757Z,103608.91
2023-02-04T07:35:35.518Z,103613.63
2023-02-04T07:38:38.039Z,103612.78
2023-02-04T07:41:40.562Z,103601.38
2023-02-04T07:44:44.444Z,103620.00
2023-02-04T07:47:47.051Z,103625.00
2023-02-04T07:50:49.655Z,103626.94
2023-02-04T07:53:52.225Z,103621.13
2023-02-04T07:56:54.750Z,103623.91
2023-02-04T07:59:59.061Z,103622.78
2023-02-04T08:03:01.630Z,103618.91
2023-02-04T08:06:04.217Z,103624.47
2023-02-04T08:09:06.837Z,103626.97
2023-02-04T08:12:09.396Z,103623.91
2023-02-04T08:15:13.307Z,103625.56
2023-02-04T08:18:15.892Z,103632.81
2023-02-04T08:21:19.534Z,103637.25
2023-02-04T08:24:22.172Z,103641.72
2023-02-04T08:27:24.706Z,103649.22
2023-02-04T08:30:28.668Z,103655.03
2023-02-04T08:33:31.245Z,103654.50
2023-02-04T08:36:33.891Z,103657.28
2023-02-04T08:39:36.459Z,103658.41
2023-02-04T08:42:39.039Z,103668.72
2023-02-04T08:45:42.977Z,103669.56
2023-02-04T08:48:45.530Z,103671.22
2023-02-04T08:51:48.103Z,103675.69
2023-02-04T08:54:50.695Z,103680.09
2023-02-04T08:57:53.232Z,103677.31
2023-02-04T09:00:57.179Z,103678.47
2023-02-04T09:03:59.792Z,103679.56
2023-02-04T09:07:02.372Z,103680.41
2023-02-04T09:10:05.169Z,103691.25
2023-02-04T09:13:11.492Z,103688.47
2023-02-04T09:16:15.455Z,103697.38
2023-02-04T09:19:23.905Z,103694.03
2023-02-04T09:22:26.448Z,103701.88
2023-02-04T09:25:29.023Z,103701.88
2023-02-04T09:28:31.623Z,103695.72
2023-02-04T09:31:35.561Z,103699.03
2023-02-04T09:34:38.103Z,103703.81
2023-02-04T09:37:40.624Z,103713.28
2023-02-04T09:40:44.013Z,103709.09
2023-02-04T09:43:46.593Z,103709.38
2023-02-04T09:46:51.648Z,103714.66
2023-02-04T09:49:54.222Z,103714.66
2023-02-04T09:52:58.009Z,103717.72
2023-02-04T09:56:00.621Z,103724.97
2023-02-04T09:59:04.603Z,103735.25
2023-02-04T10:02:15.821Z,103728.00
2023-02-04T10:05:20.852Z,103728.59
2023-02-04T10:08:27.232Z,103733.31
2023-02-04T10:11:29.766Z,103734.16
2023-02-04T10:14:32.314Z,103738.31
2023-02-04T10:17:36.734Z,103743.03
2023-02-04T10:20:39.275Z,103748.31
2023-02-04T10:23:41.959Z,103754.97
2023-02-04T10:26:44.573Z,103751.06
2023-02-04T10:29:56.763Z,103751.88
2023-02-04T10:33:00.792Z,103754.13
2023-02-04T10:36:03.380Z,103753.53
2023-02-04T10:39:06.740Z,103753.53
2023-02-04T10:42:21.478Z,103752.41
2023-02-04T10:45:25.463Z,103751.03
2023-02-04T10:48:30.293Z,103755.75
2023-02-04T10:51:33.132Z,103759.63
2023-02-04T10:54:38.737Z,103756.00
2023-02-04T10:57:41.501Z,103757.94
2023-02-04T11:00:44.034Z,103752.88
2023-02-04T11:03:49.536Z,103755.66
2023-02-04T11:06:54.292Z,103751.22
2023-02-04T11:09:57.127Z,103746.75
2023-02-04T11:13:04.187Z,103742.34
2023-02-04T11:16:14.157Z,103744.28
2023-02-04T11:19:35.173Z,103744.03
2023-02-04T11:22:42.004Z,103737.91
2023-02-04T11:25:44.559Z,103735.72
2023-02-04T11:28:49.244Z,103736.25
2023-02-04T11:31:59.946Z,103742.38
2023-02-04T11:35:23.626Z,103739.84
2023-02-04T11:38:26.326Z,103745.72
2023-02-04T11:41:30.032Z,103741.28
2023-02-04T11:44:32.894Z,103734.88
2023-02-04T11:47:35.980Z,103747.94
2023-02-04T11:50:39.997Z,103741.28
2023-02-04T11:53:42.645Z,103745.19
2023-02-04T11:56:45.496Z,103747.41
2023-02-04T11:59:48.041Z,103745.47
2023-02-04T12:02:51.704Z,103743.84
2023-02-04T12:05:56.069Z,103744.63
2023-02-04T12:09:06.624Z,103751.34
2023-02-04T12:12:10.323Z,103749.09
2023-02-04T12:15:16.675Z,103756.34
2023-02-04T12:18:19.253Z,103752.44
2023-02-04T12:21:23.172Z,103742.16
2023-02-04T12:24:25.749Z,103751.66
2023-02-04T12:27:28.282Z,103754.16
2023-02-04T12:30:30.809Z,103759.44
2023-02-04T12:33:33.368Z,103764.19
2023-02-04T12:36:37.298Z,103753.06
2023-02-04T12:39:39.820Z,103756.13
2023-02-04T12:42:42.366Z,103751.41
2023-02-04T12:45:46.263Z,103751.41
2023-02-04T12:48:48.883Z,103753.06
2023-02-04T12:51:53.120Z,103743.88
2023-02-04T12:54:55.690Z,103743.59
2023-02-04T12:57:58.225Z,103739.16
2023-02-04T13:01:03.234Z,103736.38
2023-02-04T13:04:06.745Z,103741.38
2023-02-04T13:07:10.761Z,103746.38
2023-02-04T13:10:13.856Z,103738.34
2023-02-04T13:13:16.433Z,103738.59
2023-02-04T13:16:19.355Z,103733.88
2023-02-04T13:19:22.046Z,103730.81
2023-02-04T13:22:25.931Z,103724.69
2023-02-04T13:25:28.551Z,103722.75
2023-02-04T13:28:31.213Z,103719.69
2023-02-04T13:31:33.793Z,103718.84
2023-02-04T13:34:36.321Z,103723.03
2023-02-04T13:37:40.250Z,103724.13
2023-02-04T13:40:42.793Z,103729.13
2023-02-04T13:43:45.381Z,103718.00
2023-02-04T13:46:47.981Z,103720.50
2023-02-04T13:49:50.577Z,103720.78
2023-02-04T13:52:55.258Z,103707.41
2023-02-04T13:55:57.950Z,103714.09
2023-02-04T13:59:00.522Z,103713.53
2023-02-04T14:02:03.121Z,103730.25
2023-02-04T14:05:06.325Z,103725.25
2023-02-04T14:08:10.202Z,103738.59
2023-02-04T14:11:12.777Z,103726.34
2023-02-04T14:14:15.692Z,103730.81
2023-02-04T14:17:19.303Z,103722.44
2023-02-04T14:20:21.849Z,103728.28
2023-02-04T14:23:25.884Z,103724.66
2023-02-04T14:26:28.515Z,103730.78
2023-02-04T14:29:31.091Z,103733.00
2023-02-04T14:32:33.696Z,103740.53
2023-02-04T14:35:37.501Z,103735.81
2023-02-04T14:38:41.384Z,103728.56
2023-02-04T14:41:44.008Z,103720.78
2023-02-04T14:44:46.539Z,103731.34
2023-02-04T14:47:49.144Z,103728.84
2023-02-04T14:50:51.708Z,103731.09
2023-02-04T14:53:55.597Z,103729.13
2023-02-04T14:56:58.210Z,103720.78
2023-02-04T15:00:00.742Z,103717.44
2023-02-04T15:03:03.280Z,103723.00
2023-02-04T15:06:06.256Z,103724.69
2023-02-04T15:09:10.227Z,103728.56
2023-02-04T15:12:12.804Z,103721.34
2023-02-04T15:15:15.413Z,103736.38
2023-02-04T15:18:17.997Z,103730.81
2023-02-04T15:21:20.646Z,103735.81
2023-02-04T15:24:26.712Z,103745.81
2023-02-04T15:27:29.586Z,103745.81
2023-02-04T15:30:32.668Z,103751.97
2023-02-04T15:33:35.508Z,103755.84
2023-02-04T15:36:38.085Z,103748.63
2023-02-04T15:39:43.590Z,103758.06
2023-02-04T15:42:46.181Z,103752.50
2023-02-04T15:45:48.755Z,103748.03
2023-02-04T15:48:51.351Z,103754.75
2023-02-04T15:51:53.887Z,103750.28
2023-02-04T15:54:57.842Z,103751.41
2023-02-04T15:58:00.386Z,103751.13
2023-02-04T16:01:02.963Z,103755.88
2023-02-04T16:04:05.926Z,103756.41
2023-02-04T16:07:09.750Z,103761.97
2023-02-04T16:10:13.966Z,103760.28
2023-02-04T16:13:16.545Z,103769.22
2023-02-04T16:16:19.561Z,103760.84
2023-02-04T16:19:22.215Z,103768.94
2023-02-04T16:22:24.840Z,103761.44
2023-02-04T16:25:28.789Z,103764.75
2023-02-04T16:28:31.373Z,103770.88
2023-02-04T16:31:34.073Z,103769.78
2023-02-04T16:34:36.643Z,103782.00
2023-02-04T16:37:39.197Z,103780.91
2023-02-04T16:40:43.129Z,103776.72
2023-02-04T16:43:45.712Z,103781.44
2023-02-04T16:46:50.701Z,103783.69
2023-02-04T16:49:55.117Z,103778.66
2023-02-04T16:52:57.676Z,103780.34
2023-02-04T16:56:02.167Z,103788.09
2023-02-04T16:59:04.875Z,103784.22
2023-02-04T17:02:07.456Z,103785.59
2023-02-04T17:05:10.028Z,103788.66
2023-02-04T17:08:13.698Z,103789.75
2023-02-04T17:11:32.658Z,103783.63
2023-02-04T17:14:35.242Z,103789.72
2023-02-04T17:17:38.096Z,103797.53
2023-02-04T17:20:40.627Z,103788.88
2023-02-04T17:23:43.978Z,103796.97
2023-02-04T17:26:47.911Z,103791.72
2023-02-04T17:29:50.438Z,103804.50
2023-02-04T17:32:52.989Z,103799.78
2023-02-04T17:35:55.593Z,103802.84
2023-02-04T17:38:58.146Z,103803.66
2023-02-04T17:42:02.022Z,103806.19
2023-02-04T17:45:04.716Z,103804.81
2023-02-04T17:48:07.297Z,103813.72
2023-02-04T17:51:09.928Z,103813.16
2023-02-04T17:54:12.789Z,103802.03
2023-02-04T17:57:18.824Z,103810.94
2023-02-04T18:00:22.927Z,103807.84
2023-02-04T18:03:26.737Z,103807.59
2023-02-04T18:06:29.551Z,103806.47
2023-02-04T18:09:32.162Z,103801.50
2023-02-04T18:12:36.715Z,103804.00
2023-02-04T18:15:39.398Z,103804.00
2023-02-04T18:18:42.095Z,103807.59
2023-02-04T18:21:44.724Z,103806.78
2023-02-04T18:24:48.751Z,103811.50
2023-02-04T18:27:52.895Z,103820.41
2023-02-04T18:30:55.482Z,103825.44
2023-02-04T18:33:58.080Z,103819.03
2023-02-04T18:37:01.464Z,103819.03
2023-02-04T18:40:26.369Z,103826.25
2023-02-04T18:43:31.248Z,103826.25
2023-02-04T18:46:36.220Z,103833.22
2023-02-04T18:49:43.865Z,103834.88
2023-02-04T18:52:46.473Z,103836.81
2023-02-04T18:55:49.612Z,103835.41
2023-02-04T18:58:53.536Z,103832.09
2023-02-04T19:01:56.166Z,103839.88
2023-02-04T19:05:12.622Z,103836.53
2023-02-04T19:08:24.390Z,103822.59
2023-02-04T19:11:35.052Z,103831.47
2023-02-04T19:14:39.776Z,103821.41
2023-02-04T19:17:42.381Z,103827.81
2023-02-04T19:20:44.910Z,103830.84
2023-02-04T19:23:47.572Z,103836.97
2023-02-04T19:26:53.499Z,103835.81
2023-02-04T19:29:59.563Z,103825.53
2023-02-04T19:33:02.804Z,103760.63
2023-02-04T19:36:18.195Z,103833.63
2023-02-04T19:39:30.553Z,103811.88
2023-02-04T19:42:34.280Z,103836.72
2023-02-04T19:45:38.181Z,103834.47
2023-02-04T19:48:40.741Z,103829.75
2023-02-04T19:51:43.326Z,103820.56
2023-02-04T19:54:45.881Z,103817.50
2023-02-04T19:57:50.119Z,103818.03
2023-02-04T20:01:00.603Z,103821.97
2023-02-04T20:04:04.390Z,103815.25
2023-02-04T20:07:15.436Z,103809.69
2023-02-04T20:10:22.366Z,103827.22
2023-02-04T20:13:24.958Z,103828.06
2023-02-04T20:16:37.428Z,103829.16
2023-02-04T20:19:41.840Z,103829.16
2023-02-04T20:22:49.152Z,103836.41
2023-02-04T20:25:51.726Z,103836.97
2023-02-04T20:28:54.316Z,103832.50
2023-02-04T20:31:58.269Z,103828.06
2023-02-04T20:35:02.982Z,103826.38
2023-02-04T20:38:11.947Z,103823.06
2023-02-04T20:41:16.851Z,103817.19
2023-02-04T20:44:22.778Z,103809.94
2023-02-04T20:47:27.046Z,103801.91
2023-02-04T20:50:37.978Z,103799.13
2023-02-04T20:53:41.221Z,103808.28
2023-02-04T20:56:43.927Z,103801.91
2023-02-04T20:59:49.182Z,103802.72
2023-02-04T21:02:53.120Z,103799.66
2023-02-04T21:05:57.177Z,103802.19
2023-02-04T21:09:00.083Z,103803.00
2023-02-04T21:12:02.900Z,103799.13
2023-02-04T21:15:05.844Z,103808.84
2023-02-04T21:18:09.746Z,103809.69
2023-02-04T21:21:12.321Z,103809.69
2023-02-04T21:24:14.946Z,103814.16
2023-02-04T21:27:21.925Z,103815.81
2023-02-04T21:30:26.178Z,103821.97
2023-02-04T21:33:30.136Z,103835.03
2023-02-04T21:36:32.718Z,103833.09
2023-02-04T21:39:35.323Z,103831.94
2023-02-04T21:42:37.842Z,103825.56
2023-02-04T21:45:40.537Z,103830.84
2023-02-04T21:48:44.529Z,103824.16
2023-02-04T21:51:47.401Z,103831.94
2023-02-04T21:54:49.951Z,103826.38
2023-02-04T21:57:53.204Z,103822.78
2023-02-04T22:00:55.761Z,103823.59
2023-02-04T22:03:59.718Z,103825.84
2023-02-04T22:07:02.629Z,103836.97
2023-02-04T22:10:06.463Z,103843.38
2023-02-04T22:13:09.061Z,103842.53
2023-02-04T22:16:11.648Z,103846.41
2023-02-04T22:19:15.532Z,103851.13
2023-02-04T22:22:18.276Z,103848.63
2023-02-04T22:25:21.365Z,103847.78
2023-02-04T22:28:23.954Z,103841.97
2023-02-04T22:31:26.702Z,103840.28
2023-02-04T22:34:31.382Z,103837.50
2023-02-04T22:37:34.218Z,103837.50
2023-02-04T22:40:37.088Z,103830.25
2023-02-04T22:43:39.684Z,103819.13
2023-02-04T22:46:42.230Z,103813.56
2023-02-04T22:49:46.122Z,103804.69
2023-02-04T22:52:48.695Z,103804.69
2023-02-04T22:55:51.227Z,103812.19
2023-02-04T22:58:53.836Z,103806.06
2023-02-04T23:01:56.670Z,103810.25
2023-02-04T23:05:00.589Z,103809.41
2023-02-04T23:08:03.112Z,103793.56
2023-02-04T23:11:05.865Z,103788.00
2023-02-04T23:14:08.388Z,103790.78
2023-02-04T23:17:10.936Z,103780.78
2023-02-04T23:20:14.888Z,103783.81
2023-02-04T23:23:18.996Z,103795.78
2023-02-04T23:26:21.610Z,103794.09
2023-02-04T23:29:24.128Z,103782.97
2023-02-04T23:32:27.016Z,103785.22
2023-02-04T23:35:31.148Z,103771.59
2023-02-04T23:38:33.882Z,103762.94
2023-02-04T23:41:36.463Z,103758.47
2023-02-04T23:44:39.064Z,103757.09
2023-02-04T23:47:41.644Z,103770.69
2023-02-04T23:50:48.722Z,103759.56
2023-02-04T23:53:51.286Z,103763.50
2023-02-04T23:56:53.903Z,103759.03
2023-02-04T23:59:56.443Z,103750.69
